LOWW Airport Information

Runway Information
Runway 11 Length 11483 ft width 148 ft
Elevation 575 ft Threshold 0 ft Heading 116
Runway 29 Length 11483 ft Width 148 ft
Elevation 600 ft Threshold 0 ft Heading 296
Runway 16 Length 11811 ft width 148 ft
Elevation 597 ft Threshold 2953 ft Heading 164
Runway 34 Length 11811 ft Width 148 ft
Elevation 586 ft Threshold 0 ft Heading 344
Airport Frequencies
Type APP Name WIEN RADAR Frequency 128.2 MHZ
Type ATIS Name ATIS Frequency 121.725 MHZ
Type CLD Name WIEN CLNC Frequency 122.125 MHZ
Type DIR Name DIRECTOR Frequency 119.8 MHZ
Type GND Name WIEN GND Frequency 121.6 MHZ
Type INFO Name INFO Frequency 118.525 MHZ
Type RMP Name VIENNA ICE Frequency 131.625 MHZ
Type TWR Name WIEN TWR Frequency 119.4 MHZ
Airport Navaids
Type NDB Name Bruck Frequency 408 KHZ
Type VOR-DME Name Fischamend Frequency 110400 KHZ
Type VOR-DME Name Sollenau Frequency 115500 KHZ
Type NDB Name Steinhof Frequency 293 KHZ
Type VOR-DME Name Wagram Frequency 112200 KHZ
Type NDB Name Schwechat Frequency 303 KHZ
Airport Weather Information & NOTAM
ADDS - METARS form results

(0506 UTC 16 October 2021)
Data provider http://aviationweather.gov/metar/data/
 
METAR text: LOWW 160450Z 32008KT 9999 FEW050 09/07 Q1020 NOSIG
Conditions at: LOWW (VIENNA/SCHWECHAT, AT) observed 0450 UTC 16 October 2021
Temperature: 9.0°C (48°F)
Dewpoint: 7.0°C (45°F) [RH = 87%]
Pressure (altimeter): 30.12 inches Hg (1020.0 mb)
Winds: from the NW (320 degrees) at 9 MPH (8 knots; 4.1 m/s)
Visibility: 6 or more miles (10+ km)
Ceiling: at least 12,000 feet AGL
Clouds: few clouds at 5000 feet AGL
Weather: no significant weather observed at this time

METAR text: LOWW 160420Z 33008KT 9999 FEW040 09/07 Q1019 NOSIG
Conditions at: LOWW (VIENNA/SCHWECHAT, AT) observed 0420 UTC 16 October 2021
Temperature: 9.0°C (48°F)
Dewpoint: 7.0°C (45°F) [RH = 87%]
Pressure (altimeter): 30.09 inches Hg (1019.0 mb)
Winds: from the NNW (330 degrees) at 9 MPH (8 knots; 4.1 m/s)
Visibility: 6 or more miles (10+ km)
Ceiling: at least 12,000 feet AGL
Clouds: few clouds at 4000 feet AGL
Weather: no significant weather observed at this time

Forecast for: LOWW (VIENNA/SCHWECHAT, AT)
Text: TAF LOWW 160215Z 1603/1709 33008KT 9999 FEW050 TX14/1614Z TN03/1705Z
Forecast period: 0300 to 1600 UTC 16 October 2021
Forecast type: FROM: standard forecast or significant change
Winds: from the NNW (330 degrees) at 9 MPH (8 knots; 4.1 m/s)
Visibility: 6 or more miles (10+ km)
Ceiling: at least 12,000 feet AGL
Clouds: few clouds at 5000 feet AGL
Weather: no significant weather forecast for this period
Text: BECMG 1616/1618 VRB03KT
Forecast period: 1600 UTC 16 October 2021 to 0900 UTC 17 October 2021
Forecast type: BECOMING: Conditions expected to become as follows by 1800 UTC 16 October 2021
Winds: variable direction winds at 3 MPH (3 knots; 1.5 m/s)
Visibility: 6 or more miles (10+ km)
Ceiling: at least 12,000 feet AGL
Clouds: few clouds at 5000 feet AGL
Weather: no significant weather forecast for this period